Time;durP1;ratioP1;P1;durP2;ratioP2;P2;SDS_P1;SDS_P2;PMS_P1;PMS_P2;Temp;Humidity;BMP_temperature;BMP_pressure;BME280_temperature;BME280_humidity;BME280_pressure;Samples;Min_cycle;Max_cycle;Signal;HPM_P1;HPM_P2
2023/09/28 00:02:23;;;;;;;47.20;29.50;;;;;;;12.22;100.00;101712.45;105733;1253;63854;-75
2023/09/28 00:04:49;;;;;;;39.00;27.20;;;;;;;12.22;100.00;101713.18;105720;1253;72707;-77
2023/09/28 00:07:16;;;;;;;42.00;29.70;;;;;;;12.19;100.00;101717.67;105736;1257;61977;-75
2023/09/28 00:09:43;;;;;;;43.60;28.40;;;;;;;12.16;100.00;101715.73;105719;1257;60397;-78
2023/09/28 00:12:10;;;;;;;42.20;28.10;;;;;;;12.13;100.00;101718.35;105641;1253;73864;-77
2023/09/28 00:14:37;;;;;;;45.70;29.80;;;;;;;12.10;100.00;101720.77;105653;1257;63767;-77
2023/09/28 00:17:04;;;;;;;37.40;27.60;;;;;;;12.08;100.00;101722.10;105656;1253;71463;-76
2023/09/28 00:19:30;;;;;;;41.20;28.90;;;;;;;12.05;100.00;101724.73;105629;1252;62043;-76
2023/09/28 00:21:57;;;;;;;46.50;29.40;;;;;;;12.02;100.00;101724.31;105724;1253;60872;-77
2023/09/28 00:24:24;;;;;;;44.10;30.10;;;;;;;12.00;100.00;101723.52;105760;1253;73872;-76
2023/09/28 00:26:52;;;;;;;51.80;30.90;;;;;;;11.98;100.00;101720.80;105635;1253;62495;-77
2023/09/28 00:29:19;;;;;;;43.40;30.80;;;;;;;11.97;100.00;101719.83;105624;1257;72767;-78
2023/09/28 00:31:46;;;;;;;42.70;29.50;;;;;;;11.96;100.00;101724.95;105684;1256;62031;-75
2023/09/28 00:34:13;;;;;;;43.10;29.40;;;;;;;11.94;100.00;101723.45;105754;1253;60486;-78
2023/09/28 00:36:40;;;;;;;42.70;29.00;;;;;;;11.92;100.00;101721.83;105655;1253;73744;-76
2023/09/28 00:39:08;;;;;;;36.70;27.50;;;;;;;11.88;100.00;101723.75;105661;1257;62790;-77
2023/09/28 00:41:35;;;;;;;54.20;31.50;;;;;;;11.84;100.00;101723.73;106174;1253;72685;-74
2023/09/28 00:44:04;;;;;;;41.90;31.10;;;;;;;11.80;100.00;101724.80;105696;1252;60966;-77
2023/09/28 00:46:32;;;;;;;40.80;31.80;;;;;;;11.77;100.00;101727.58;105726;1253;60473;-76
2023/09/28 00:49:03;;;;;;;49.90;30.80;;;;;;;11.74;100.00;101725.64;105809;1253;72964;-77
2023/09/28 00:51:33;;;;;;;43.90;30.70;;;;;;;11.71;100.00;101727.66;105726;1257;63516;-77
2023/09/28 00:54:00;;;;;;;44.40;30.30;;;;;;;11.70;100.00;101728.95;105786;1257;72417;-77
2023/09/28 00:56:28;;;;;;;45.10;30.70;;;;;;;11.67;100.00;101729.27;105657;1257;60575;-76
2023/09/28 00:58:56;;;;;;;41.50;30.80;;;;;;;11.66;100.00;101726.54;105622;1258;60468;-75
2023/09/28 01:01:26;;;;;;;45.00;31.30;;;;;;;11.66;100.00;101729.31;105751;1257;73750;-79
2023/09/28 01:03:55;;;;;;;40.50;30.50;;;;;;;11.66;100.00;101731.92;105832;1256;63617;-77
2023/09/28 01:06:24;;;;;;;39.00;29.40;;;;;;;11.66;100.00;101729.88;105732;1253;72743;-77
2023/09/28 01:08:55;;;;;;;43.90;31.10;;;;;;;11.64;100.00;101734.30;105666;1258;61869;-76
2023/09/28 01:11:22;;;;;;;40.50;28.80;;;;;;;11.63;100.00;101732.96;105666;1253;60522;-78
2023/09/28 01:13:49;;;;;;;38.30;29.20;;;;;;;11.62;100.00;101732.83;105652;1253;73903;-77
2023/09/28 01:16:19;;;;;;;36.20;27.90;;;;;;;11.61;100.00;101736.04;105682;1257;63856;-77
2023/09/28 01:18:46;;;;;;;40.20;27.60;;;;;;;11.58;100.00;101740.35;105670;1253;71407;-76
2023/09/28 01:21:13;;;;;;;40.90;28.50;;;;;;;11.56;100.00;101739.94;105612;1253;61705;-77
2023/09/28 01:23:40;;;;;;;35.90;27.90;;;;;;;11.52;100.00;101745.88;106123;1257;60355;-74
2023/09/28 01:26:07;;;;;;;39.80;27.10;;;;;;;11.48;100.00;101743.48;105739;1253;72443;-77
2023/09/28 01:28:34;;;;;;;40.70;28.60;;;;;;;11.46;100.00;101747.42;105818;1258;62404;-76
2023/09/28 01:31:01;;;;;;;41.00;28.10;;;;;;;11.43;100.00;101744.38;105728;1253;71614;-77
2023/09/28 01:33:29;;;;;;;39.80;28.10;;;;;;;11.40;100.00;101744.88;105708;1257;61862;-75
2023/09/28 01:35:56;;;;;;;37.80;27.50;;;;;;;11.38;100.00;101747.94;105803;1253;60467;-75
2023/09/28 01:38:28;;;;;;;42.00;28.60;;;;;;;11.36;100.00;101747.70;105650;1253;73882;-77
2023/09/28 01:40:55;;;;;;;42.00;28.20;;;;;;;11.36;100.00;101752.05;105683;1253;63712;-77
2023/09/28 01:43:22;;;;;;;42.50;29.00;;;;;;;11.35;100.00;101752.27;105642;1257;72773;-76
2023/09/28 01:45:49;;;;;;;40.20;28.50;;;;;;;11.34;100.00;101754.27;105590;1257;61985;-76
2023/09/28 01:48:16;;;;;;;41.10;28.90;;;;;;;11.32;100.00;101755.39;105710;1258;60449;-76
2023/09/28 01:50:44;;;;;;;40.90;27.50;;;;;;;11.31;100.00;101755.08;105606;1254;73866;-77
2023/09/28 01:53:11;;;;;;;44.30;28.50;;;;;;;11.29;100.00;101753.79;105605;1257;63951;-77
2023/09/28 01:55:38;;;;;;;38.60;28.30;;;;;;;11.26;100.00;101754.44;105702;1255;72562;-78
2023/09/28 01:58:07;;;;;;;38.00;26.90;;;;;;;11.24;100.00;101760.66;105630;1254;61904;-77
2023/09/28 02:00:37;;;;;;;41.90;28.40;;;;;;;11.21;100.00;101765.50;105609;1256;60452;-76
2023/09/28 02:03:05;;;;;;;36.20;27.10;;;;;;;11.19;100.00;101763.48;105503;1253;73955;-76
2023/09/28 02:05:33;;;;;;;38.00;27.80;;;;;;;11.17;100.00;101757.27;106208;1253;64029;-75
2023/09/28 02:08:00;;;;;;;34.70;26.60;;;;;;;11.15;100.00;101757.20;105732;1252;72595;-78
2023/09/28 02:10:28;;;;;;;43.00;28.10;;;;;;;11.13;100.00;101760.95;105829;1256;62126;-76
2023/09/28 02:12:55;;;;;;;40.20;29.40;;;;;;;11.10;100.00;101761.24;105777;1253;60540;-76
2023/09/28 02:15:23;;;;;;;38.00;27.70;;;;;;;11.07;100.00;101764.39;105795;1253;72677;-76
2023/09/28 02:17:50;;;;;;;36.20;27.70;;;;;;;11.04;100.00;101764.14;105564;1258;63851;-77
2023/09/28 02:20:19;;;;;;;39.40;27.40;;;;;;;11.02;100.00;101765.12;105593;1253;72787;-76
2023/09/28 02:22:46;;;;;;;42.90;30.20;;;;;;;10.99;100.00;101763.47;105688;1253;60560;-75
2023/09/28 02:25:18;;;;;;;43.20;29.50;;;;;;;10.98;100.00;101766.67;105581;1253;60313;-79
2023/09/28 02:27:46;;;;;;;46.40;28.30;;;;;;;10.96;100.00;101768.14;105664;1257;73860;-76
2023/09/28 02:30:17;;;;;;;40.30;28.30;;;;;;;10.95;100.00;101762.60;105645;1256;63670;-78
2023/09/28 02:32:44;;;;;;;43.40;29.20;;;;;;;10.94;100.00;101764.60;105704;1257;72062;-79
2023/09/28 02:35:15;;;;;;;39.00;28.60;;;;;;;10.92;100.00;101764.84;105732;1253;60551;-77
2023/09/28 02:37:46;;;;;;;48.00;31.00;;;;;;;10.91;100.00;101765.91;105733;1257;60372;-74
2023/09/28 02:40:13;;;;;;;43.00;29.00;;;;;;;10.91;100.00;101768.55;105736;1253;73797;-79
2023/09/28 02:42:42;;;;;;;45.70;30.00;;;;;;;10.90;100.00;101769.66;105617;1255;62380;-75
2023/09/28 02:45:12;;;;;;;41.60;29.20;;;;;;;10.88;100.00;101772.20;105644;1257;71385;-77
2023/09/28 02:47:46;;;;;;;41.50;31.40;;;;;;;10.86;100.00;101771.58;106162;1257;62184;-74
2023/09/28 02:50:14;;;;;;;48.60;29.40;;;;;;;10.83;100.00;101774.83;105741;1254;60356;-77
2023/09/28 02:52:46;;;;;;;42.80;30.30;;;;;;;10.82;100.00;101777.02;105717;1253;73830;-75
2023/09/28 02:55:13;;;;;;;42.80;30.00;;;;;;;10.80;100.00;101776.73;105509;1258;63702;-74
2023/09/28 02:57:40;;;;;;;41.40;29.90;;;;;;;10.79;100.00;101778.16;105668;1252;71462;-76
2023/09/28 03:00:24;;;;;;;38.90;29.50;;;;;;;10.78;100.00;101775.73;105735;1257;60551;-76
2023/09/28 03:02:53;;;;;;;42.30;29.10;;;;;;;10.77;100.00;101775.77;105708;1253;60720;-75
2023/09/28 03:05:23;;;;;;;44.00;30.60;;;;;;;10.76;100.00;101775.30;105548;1253;72675;-73
2023/09/28 03:07:50;;;;;;;42.00;30.20;;;;;;;10.75;100.00;101776.77;105680;1257;63340;-74
2023/09/28 03:10:18;;;;;;;49.80;32.20;;;;;;;10.72;100.00;101776.69;105759;1253;72707;-74
2023/09/28 03:12:46;;;;;;;37.00;30.30;;;;;;;10.71;100.00;101775.53;105674;1253;62081;-74
2023/09/28 03:15:14;;;;;;;45.90;31.40;;;;;;;10.69;100.00;101775.59;105750;1253;60474;-75
2023/09/28 03:17:41;;;;;;;39.10;29.90;;;;;;;10.68;100.00;101776.69;105703;1252;73918;-75
2023/09/28 03:20:17;;;;;;;42.40;29.90;;;;;;;10.67;100.00;101776.23;105782;1257;63798;-75
2023/09/28 03:22:45;;;;;;;44.50;29.10;;;;;;;10.66;100.00;101777.85;105770;1258;71998;-76
2023/09/28 03:25:22;;;;;;;42.20;30.80;;;;;;;10.64;100.00;101778.10;105601;1254;60653;-73
2023/09/28 03:27:53;;;;;;;39.30;30.00;;;;;;;10.63;100.00;101781.29;105766;1253;61094;-73
2023/09/28 03:30:24;;;;;;;44.70;30.80;;;;;;;10.62;100.00;101780.81;106078;1252;73986;-73
2023/09/28 03:32:51;;;;;;;41.60;31.50;;;;;;;10.61;100.00;101778.75;105773;1254;61309;-73
2023/09/28 03:35:18;;;;;;;41.40;31.10;;;;;;;10.60;100.00;101778.97;105827;1253;72660;-73
2023/09/28 03:37:46;;;;;;;46.50;30.30;;;;;;;10.58;100.00;101778.17;106044;1253;61992;-73
2023/09/28 03:40:14;;;;;;;38.10;30.00;;;;;;;10.56;100.00;101776.66;105774;1253;60534;-75
2023/09/28 03:42:43;;;;;;;46.40;29.30;;;;;;;10.55;100.00;101780.38;105764;1253;72934;-75
2023/09/28 03:45:11;;;;;;;44.30;29.60;;;;;;;10.54;100.00;101774.66;105879;1252;61884;-75
2023/09/28 03:47:39;;;;;;;43.90;29.50;;;;;;;10.52;100.00;101778.08;105728;1253;72730;-76
2023/09/28 03:50:08;;;;;;;49.20;30.30;;;;;;;10.51;100.00;101776.34;105659;1257;60567;-75
2023/09/28 03:52:39;;;;;;;42.80;30.50;;;;;;;10.50;100.00;101777.42;105763;1254;60553;-76
2023/09/28 03:55:21;;;;;;;46.50;28.70;;;;;;;10.49;100.00;101780.98;105714;1257;72886;-75
2023/09/28 03:57:49;;;;;;;43.80;30.10;;;;;;;10.48;100.00;101780.48;105661;1257;64196;-75
2023/09/28 04:00:17;;;;;;;42.00;29.40;;;;;;;10.48;100.00;101781.38;105675;1253;72576;-74
2023/09/28 04:02:46;;;;;;;42.50;28.60;;;;;;;10.48;100.00;101783.45;105799;1258;62056;-74
2023/09/28 04:05:17;;;;;;;41.70;30.50;;;;;;;10.48;100.00;101779.27;105718;1257;60432;-76
2023/09/28 04:07:45;;;;;;;43.20;30.50;;;;;;;10.49;100.00;101777.83;105661;1253;73882;-77
2023/09/28 04:10:13;;;;;;;48.60;30.40;;;;;;;10.50;100.00;101777.98;105703;1257;64001;-74
2023/09/28 04:12:40;;;;;;;75.00;35.70;;;;;;;10.51;100.00;101777.41;105940;1253;71934;-77
2023/09/28 04:15:07;;;;;;;52.80;35.00;;;;;;;10.52;100.00;101776.45;105777;1258;62037;-76
2023/09/28 04:17:35;;;;;;;47.90;32.30;;;;;;;10.55;100.00;101778.11;105770;1253;60561;-75
2023/09/28 04:20:04;;;;;;;52.60;34.10;;;;;;;10.58;100.00;101777.99;105619;1258;71730;-77
2023/09/28 04:22:32;;;;;;;45.40;33.50;;;;;;;10.61;100.00;101783.13;105706;1257;63914;-75
2023/09/28 04:24:59;;;;;;;52.30;31.80;;;;;;;10.64;100.00;101786.84;105749;1252;72531;-77
2023/09/28 04:27:26;;;;;;;51.30;33.70;;;;;;;10.66;100.00;101787.79;105760;1257;62049;-74
2023/09/28 04:29:54;;;;;;;54.20;34.10;;;;;;;10.70;100.00;101789.40;105693;1253;60467;-76
2023/09/28 04:32:21;;;;;;;56.50;34.80;;;;;;;10.72;100.00;101790.36;105840;1254;73815;-78
2023/09/28 04:34:48;;;;;;;56.00;34.10;;;;;;;10.76;100.00;101789.83;105712;1257;63957;-74
2023/09/28 04:37:16;;;;;;;55.70;34.60;;;;;;;10.82;100.00;101791.02;105726;1253;72790;-75
2023/09/28 04:39:44;;;;;;;49.70;32.10;;;;;;;10.88;100.00;101791.62;105693;1254;60469;-76
2023/09/28 04:42:12;;;;;;;58.30;34.60;;;;;;;10.97;100.00;101792.64;105751;1252;60493;-75
2023/09/28 04:44:43;;;;;;;61.20;33.20;;;;;;;11.20;100.00;101798.62;105807;1252;72910;-75
2023/09/28 04:47:11;;;;;;;62.60;34.60;;;;;;;11.66;100.00;101797.10;105839;1257;63919;-76
2023/09/28 04:49:40;;;;;;;49.70;34.30;;;;;;;12.13;100.00;101802.33;105702;1258;72768;-76
2023/09/28 04:52:10;;;;;;;54.90;31.80;;;;;;;12.53;100.00;101802.67;105680;1258;60619;-74
2023/09/28 04:54:37;;;;;;;50.60;33.10;;;;;;;12.84;100.00;101802.34;105850;1257;60306;-74
2023/09/28 04:57:05;;;;;;;48.50;35.70;;;;;;;13.00;100.00;101808.02;105810;1252;73730;-75
2023/09/28 04:59:38;;;;;;;50.50;34.60;;;;;;;13.07;100.00;101805.90;105718;1257;62813;-76
2023/09/28 05:02:07;;;;;;;53.50;36.60;;;;;;;13.11;100.00;101808.03;105678;1252;74106;-75
2023/09/28 05:04:34;;;;;;;44.90;34.40;;;;;;;13.18;100.00;101807.63;105397;1258;281630;-76
2023/09/28 05:07:43;;;;;;;53.40;38.50;;;;;;;13.34;100.00;101801.41;102751;1294;600808;-75
2023/09/28 05:10:11;;;;;;;50.00;35.90;;;;;;;13.43;100.00;101803.73;104913;1266;61667;-75
2023/09/28 05:12:39;;;;;;;43.00;33.80;;;;;;;13.52;100.00;101804.86;104911;1269;59612;-75
2023/09/28 05:15:08;;;;;;;52.10;33.20;;;;;;;13.61;100.00;101805.77;104828;1264;72418;-76
2023/09/28 05:17:35;;;;;;;53.00;33.20;;;;;;;13.82;100.00;101803.91;104887;1264;62310;-77
2023/09/28 05:20:04;;;;;;;48.80;30.90;;;;;;;14.35;100.00;101810.82;104925;1270;72990;-75
2023/09/28 05:22:31;;;;;;;58.10;29.30;;;;;;;14.98;100.00;101812.33;104738;1264;233555;-75
2023/09/28 05:24:59;;;;;;;53.60;30.00;;;;;;;15.38;100.00;101815.70;104911;1264;59314;-74
2023/09/28 05:27:26;;;;;;;52.40;32.90;;;;;;;15.56;100.00;101819.73;104916;1263;72209;-74
2023/09/28 05:29:53;;;;;;;50.10;32.00;;;;;;;15.62;100.00;101822.17;104975;1265;63802;-75
2023/09/28 05:32:21;;;;;;;39.40;29.30;;;;;;;15.67;100.00;101826.48;104991;1268;71478;-75
2023/09/28 05:34:49;;;;;;;44.80;29.90;;;;;;;15.86;100.00;101827.08;104937;1268;61627;-72
2023/09/28 05:37:16;;;;;;;38.20;28.50;;;;;;;16.38;100.00;101821.45;104962;1268;59689;-78
2023/09/28 05:39:44;;;;;;;41.30;26.20;;;;;;;17.18;100.00;101822.83;105749;1257;70994;-76
2023/09/28 05:42:11;;;;;;;40.20;25.00;;;;;;;18.12;100.00;101823.27;105495;1259;62459;-75
2023/09/28 05:44:39;;;;;;;25.40;18.70;;;;;;;19.11;100.00;101825.70;105586;1259;71828;-76
2023/09/28 05:47:06;;;;;;;33.30;18.00;;;;;;;20.07;100.00;101826.81;105602;1258;60545;-73
2023/09/28 05:49:34;;;;;;;21.30;17.50;;;;;;;20.98;99.98;101825.20;105484;1258;59641;-77
2023/09/28 05:52:02;;;;;;;21.00;15.90;;;;;;;21.88;93.68;101819.02;105610;1253;73295;-74
2023/09/28 05:54:29;;;;;;;29.40;16.70;;;;;;;22.74;82.24;101818.39;105569;1253;63570;-76
2023/09/28 05:56:57;;;;;;;23.50;16.40;;;;;;;23.57;70.90;101815.26;105550;1256;70728;-76
2023/09/28 05:59:24;;;;;;;26.20;15.60;;;;;;;24.33;63.76;101815.67;105581;1259;59669;-75
2023/09/28 06:01:51;;;;;;;19.90;15.20;;;;;;;25.01;57.34;101817.29;105661;1253;59638;-75
2023/09/28 06:04:19;;;;;;;26.20;15.70;;;;;;;25.58;52.07;101811.17;105728;1257;73262;-75
2023/09/28 06:06:46;;;;;;;23.20;16.00;;;;;;;26.16;49.19;101814.96;105673;1253;62402;-75
2023/09/28 06:09:14;;;;;;;21.90;15.60;;;;;;;26.72;46.44;101816.24;105563;1253;72684;-74
2023/09/28 06:11:42;;;;;;;24.00;15.90;;;;;;;27.23;43.36;101814.87;105545;1254;60145;-74
2023/09/28 06:14:09;;;;;;;21.40;16.20;;;;;;;27.68;41.90;101813.39;105657;1254;59700;-76
2023/09/28 06:16:37;;;;;;;19.70;14.80;;;;;;;28.09;40.46;101811.14;105762;1254;73329;-76
2023/09/28 06:19:06;;;;;;;23.00;15.10;;;;;;;28.49;39.43;101807.77;105650;1260;63674;-74
2023/09/28 06:21:34;;;;;;;25.00;15.20;;;;;;;28.87;38.01;101811.88;105732;1260;72909;-75
2023/09/28 06:24:05;;;;;;;28.40;14.30;;;;;;;29.23;36.82;101804.37;105686;1259;59729;-75
2023/09/28 06:26:33;;;;;;;20.30;13.10;;;;;;;29.60;35.91;101805.11;105715;1259;59820;-76
2023/09/28 06:29:10;;;;;;;24.50;13.80;;;;;;;30.02;34.39;101801.79;105640;1260;73617;-79
2023/09/28 06:31:38;;;;;;;20.00;12.20;;;;;;;30.36;32.96;101798.41;105672;1254;62362;-80
2023/09/28 06:34:08;;;;;;;24.90;12.40;;;;;;;30.54;32.05;101790.27;105659;1254;72684;-77
2023/09/28 06:36:37;;;;;;;17.10;11.10;;;;;;;30.75;32.03;101792.73;105657;1257;59695;-74
2023/09/28 06:39:08;;;;;;;15.90;11.80;;;;;;;31.00;31.62;101796.84;105702;1260;59625;-75
2023/09/28 06:41:38;;;;;;;24.70;13.20;;;;;;;31.22;31.45;101798.30;105546;1256;72463;-77
2023/09/28 06:44:08;;;;;;;18.30;11.10;;;;;;;31.44;31.28;101794.60;105686;1259;64330;-73
2023/09/28 06:46:36;;;;;;;17.90;10.80;;;;;;;31.69;30.44;101800.55;105672;1257;72805;-74
2023/09/28 06:49:06;;;;;;;21.90;10.70;;;;;;;31.86;29.52;101799.77;105561;1260;59730;-74
2023/09/28 06:51:34;;;;;;;13.40;10.50;;;;;;;32.01;28.97;101799.58;105792;1256;59642;-74
2023/09/28 06:54:04;;;;;;;13.70;9.70;;;;;;;32.16;28.73;101800.52;105763;1251;73032;-76
2023/09/28 06:56:36;;;;;;;13.80;11.00;;;;;;;32.35;28.41;101797.95;105860;1251;63046;-76
2023/09/28 06:59:04;;;;;;;16.50;10.90;;;;;;;32.51;28.41;101798.23;105901;1254;71446;-75
2023/09/28 07:01:31;;;;;;;20.00;11.50;;;;;;;32.69;27.76;101796.77;105862;1251;60313;-73
2023/09/28 07:03:59;;;;;;;19.90;11.60;;;;;;;32.86;27.70;101797.83;105866;1256;59653;-76
2023/09/28 07:06:26;;;;;;;14.50;10.30;;;;;;;33.02;27.49;101800.93;105846;1251;72429;-75
2023/09/28 07:08:54;;;;;;;17.60;11.30;;;;;;;33.21;27.61;101789.66;105866;1254;63719;-76
2023/09/28 07:11:22;;;;;;;14.90;11.40;;;;;;;33.46;27.31;101787.77;105855;1251;74866;-76
2023/09/28 07:13:50;;;;;;;17.00;11.20;;;;;;;33.65;26.95;101791.39;105886;1253;59736;-76
2023/09/28 07:16:18;;;;;;;18.00;10.10;;;;;;;33.87;26.49;101798.14;105909;1253;60889;-78
2023/09/28 07:18:46;;;;;;;24.10;11.50;;;;;;;34.04;26.22;101798.73;105674;1257;72195;-79
2023/09/28 07:21:13;;;;;;;17.50;10.10;;;;;;;34.14;25.96;101800.12;105845;1256;64436;-74
2023/09/28 07:23:41;;;;;;;12.90;9.70;;;;;;;34.21;25.80;101799.81;105703;1251;74091;-74
2023/09/28 07:26:15;;;;;;;12.20;9.20;;;;;;;34.27;25.47;101798.06;105773;1251;60123;-74
2023/09/28 07:28:44;;;;;;;16.20;9.30;;;;;;;34.37;25.44;101802.46;105916;1256;59704;-74
2023/09/28 07:43:59;;;;;;;10.00;8.30;;;;;;;35.56;24.37;101789.39;102670;1293;615355;-74
2023/09/28 07:46:26;;;;;;;16.00;8.70;;;;;;;35.77;23.55;101788.63;105033;1266;59258;-74
2023/09/28 07:48:55;;;;;;;15.30;8.40;;;;;;;35.86;23.73;101785.38;104882;1266;60760;-75
2023/09/28 07:51:22;;;;;;;14.70;7.50;;;;;;;35.95;23.74;101783.80;104955;1264;70843;-75
2023/09/28 07:53:49;;;;;;;13.50;7.50;;;;;;;36.05;23.83;101783.36;105761;1257;63926;-76
2023/09/28 07:56:16;;;;;;;8.10;7.30;;;;;;;36.21;23.67;101782.84;105558;1257;215613;-73
2023/09/28 07:58:43;;;;;;;14.30;7.00;;;;;;;36.33;23.02;101779.75;105915;1254;59165;-74
2023/09/28 08:01:26;;;;;;;10.50;7.20;;;;;;;36.43;22.72;101779.08;106017;1254;60968;-78
2023/09/28 08:04:02;;;;;;;14.30;8.20;;;;;;;36.57;22.73;101777.28;106022;1253;62726;-75
2023/09/28 08:06:32;;;;;;;9.60;7.60;;;;;;;36.70;22.87;101775.02;105949;1254;63995;-77
2023/09/28 08:08:59;;;;;;;14.20;6.70;;;;;;;36.83;22.30;101775.09;105966;1251;65116;-74
2023/09/28 08:11:30;;;;;;;11.40;7.60;;;;;;;36.94;22.21;101772.65;105907;1254;59758;-77
2023/09/28 08:13:57;;;;;;;9.70;6.60;;;;;;;37.04;22.31;101767.71;105826;1254;59618;-73
2023/09/28 08:16:24;;;;;;;10.60;6.30;;;;;;;37.16;22.27;101762.86;105813;1253;64475;-74
2023/09/28 08:18:51;;;;;;;13.90;7.20;;;;;;;37.32;22.01;101763.95;105828;1255;59620;-78
2023/09/28 08:21:18;;;;;;;13.50;6.20;;;;;;;37.56;21.92;101759.70;105787;1255;65262;-76
2023/09/28 08:23:44;;;;;;;12.40;6.80;;;;;;;37.88;21.61;101759.30;106078;1251;59624;-77
2023/09/28 08:26:11;;;;;;;12.20;6.40;;;;;;;38.08;21.21;101756.60;105946;1250;59646;-77
2023/09/28 08:28:38;;;;;;;13.70;6.10;;;;;;;38.15;21.10;101751.52;105861;1253;66082;-77
2023/09/28 08:31:06;;;;;;;13.70;6.70;;;;;;;38.17;20.98;101747.48;105962;1253;59617;-77
2023/09/28 08:33:33;;;;;;;12.70;6.70;;;;;;;38.24;21.07;101747.05;105978;1254;65791;-77
2023/09/28 08:36:00;;;;;;;16.00;5.70;;;;;;;38.40;21.11;101742.80;105824;1253;59652;-79
2023/09/28 08:38:28;;;;;;;8.80;5.60;;;;;;;38.58;20.93;101740.63;105815;1251;59710;-77
2023/09/28 08:41:01;;;;;;;12.60;6.20;;;;;;;38.70;20.88;101742.71;105788;1251;65506;-77
2023/09/28 08:43:30;;;;;;;12.80;5.90;;;;;;;38.82;20.74;101739.20;105883;1256;59695;-77
2023/09/28 08:45:57;;;;;;;14.70;6.30;;;;;;;38.94;20.59;101736.95;105862;1256;62638;-78
2023/09/28 08:48:27;;;;;;;16.20;6.40;;;;;;;39.01;20.49;101732.39;105761;1256;59701;-77
2023/09/28 08:50:59;;;;;;;10.90;5.60;;;;;;;39.10;19.89;101736.16;105988;1253;59775;-78
2023/09/28 08:53:26;;;;;;;10.60;5.00;;;;;;;39.19;19.71;101737.14;105874;1253;65170;-78
2023/09/28 08:55:53;;;;;;;10.70;5.60;;;;;;;39.22;19.35;101736.96;105764;1256;59563;-80
2023/09/28 08:58:20;;;;;;;10.40;5.80;;;;;;;39.27;19.62;101733.34;105830;1256;65319;-76
2023/09/28 09:00:47;;;;;;;14.40;5.80;;;;;;;39.36;19.87;101728.95;105881;1256;59621;-78
2023/09/28 09:03:14;;;;;;;10.30;5.90;;;;;;;39.47;19.72;101723.80;105910;1253;59750;-77
2023/09/28 09:05:41;;;;;;;9.70;5.00;;;;;;;39.50;19.48;101720.53;106151;1253;64599;-77
2023/09/28 09:08:08;;;;;;;19.10;5.80;;;;;;;39.62;19.55;101715.86;105723;1259;59988;-79
2023/09/28 09:10:35;;;;;;;11.50;4.80;;;;;;;39.73;19.55;101712.28;106013;1251;64109;-78
2023/09/28 09:13:02;;;;;;;9.50;4.80;;;;;;;39.79;19.31;101710.98;105812;1251;59646;-79
2023/09/28 09:15:29;;;;;;;9.40;4.50;;;;;;;39.87;19.37;101710.00;105803;1251;59705;-77
2023/09/28 09:18:02;;;;;;;14.90;4.60;;;;;;;40.02;19.32;101705.96;105807;1256;65661;-76
2023/09/28 09:20:29;;;;;;;13.60;4.50;;;;;;;40.02;18.94;101702.60;106028;1255;59740;-77
2023/09/28 09:23:10;;;;;;;8.10;4.10;;;;;;;39.90;19.14;101703.77;105881;1251;64973;-76
2023/09/28 09:25:44;;;;;;;17.40;4.80;;;;;;;39.89;19.07;101697.67;105760;1251;59711;-76
2023/09/28 09:28:12;;;;;;;9.80;4.10;;;;;;;39.94;18.97;101695.34;105955;1251;59648;-77
2023/09/28 09:30:40;;;;;;;12.40;4.30;;;;;;;39.98;18.61;101689.52;106035;1252;65429;-75
2023/09/28 09:33:07;;;;;;;7.50;4.70;;;;;;;40.02;18.79;101689.46;105802;1254;59537;-78
2023/09/28 09:35:34;;;;;;;7.80;4.30;;;;;;;40.10;18.68;101687.65;105810;1255;63849;-77
2023/09/28 09:38:03;;;;;;;6.30;4.70;;;;;;;40.18;18.68;101683.86;105946;1256;59615;-78
2023/09/28 09:40:31;;;;;;;5.70;4.00;;;;;;;40.25;18.69;101681.70;105901;1251;59615;-77
2023/09/28 09:43:08;;;;;;;4.00;3.40;;;;;;;40.31;18.78;101676.59;105994;1250;64393;-76
2023/09/28 09:45:38;;;;;;;4.10;3.60;;;;;;;40.40;18.56;101673.40;105857;1250;59627;-79
2023/09/28 09:48:06;;;;;;;4.10;3.60;;;;;;;40.36;18.31;101667.88;106067;1256;64158;-76
2023/09/28 09:50:35;;;;;;;7.40;3.00;;;;;;;40.30;18.22;101667.20;106052;1250;59870;-81
2023/09/28 09:53:05;;;;;;;8.50;3.80;;;;;;;40.28;18.16;101658.77;105967;1250;59674;-78
2023/09/28 09:55:33;;;;;;;7.60;3.60;;;;;;;40.32;18.38;101658.90;105924;1250;73870;-78
2023/09/28 09:58:03;;;;;;;4.70;2.90;;;;;;;40.49;18.11;101658.92;105761;1257;59726;-74
2023/09/28 10:00:33;;;;;;;6.80;3.90;;;;;;;40.53;17.18;101658.00;105807;1256;65056;-79
2023/09/28 10:03:00;;;;;;;9.10;2.60;;;;;;;40.46;17.38;101660.13;105835;1258;61222;-79
2023/09/28 10:05:27;;;;;;;5.10;3.10;;;;;;;40.40;17.56;101655.30;105888;1253;59766;-77
2023/09/28 10:07:55;;;;;;;8.30;4.20;;;;;;;40.27;17.39;101656.81;105756;1257;65642;-78
2023/09/28 10:10:23;;;;;;;7.30;3.30;;;;;;;40.09;17.37;101656.38;105797;1255;59792;-77
2023/09/28 10:12:50;;;;;;;11.70;4.00;;;;;;;39.96;17.46;101656.61;105738;1253;65817;-75
2023/09/28 10:15:16;;;;;;;9.50;2.80;;;;;;;39.86;17.08;101656.44;105823;1258;59650;-75
2023/09/28 10:17:45;;;;;;;7.30;3.40;;;;;;;39.64;17.20;101650.40;105780;1255;59616;-77
2023/09/28 10:20:13;;;;;;;4.80;2.90;;;;;;;39.45;17.56;101649.33;105789;1253;64396;-77
2023/09/28 10:22:43;;;;;;;3.30;3.00;;;;;;;39.29;17.56;101640.64;105764;1258;59623;-78
2023/09/28 10:25:12;;;;;;;5.80;2.10;;;;;;;39.23;17.64;101638.72;105728;1253;63837;-76
2023/09/28 10:27:43;;;;;;;6.10;3.00;;;;;;;39.20;17.49;101639.73;105810;1253;59763;-78
2023/09/28 10:30:21;;;;;;;9.80;3.10;;;;;;;39.08;17.57;101639.17;105898;1255;59540;-77
2023/09/28 10:32:57;;;;;;;3.20;2.20;;;;;;;39.12;17.81;101636.02;106000;1253;64336;-77
2023/09/28 10:35:29;;;;;;;4.00;2.60;;;;;;;39.15;17.75;101631.89;105722;1252;59664;-78
2023/09/28 10:38:18;;;;;;;6.70;3.10;;;;;;;39.18;17.93;101636.37;105804;1255;65081;-76
2023/09/28 10:41:01;;;;;;;8.40;4.10;;;;;;;39.13;17.00;101634.83;105858;1257;59727;-75
2023/09/28 10:43:29;;;;;;;5.70;3.50;;;;;;;38.88;17.06;101632.13;105709;1253;59713;-77
2023/09/28 10:45:57;;;;;;;4.70;3.40;;;;;;;38.67;16.82;101630.36;105877;1255;64464;-78
2023/09/28 10:48:25;;;;;;;4.80;3.00;;;;;;;38.56;17.11;101630.52;105884;1252;59834;-76
2023/09/28 10:50:53;;;;;;;4.70;2.20;;;;;;;38.51;16.95;101631.37;105918;1253;65069;-75
2023/09/28 10:53:21;;;;;;;3.50;2.00;;;;;;;38.42;16.99;101624.86;105766;1255;59648;-77
2023/09/28 10:55:48;;;;;;;6.20;2.10;;;;;;;38.29;17.11;101623.59;105762;1253;59777;-77
2023/09/28 10:58:15;;;;;;;3.00;2.60;;;;;;;38.16;17.08;101618.91;105884;1254;64422;-77
2023/09/28 11:00:44;;;;;;;10.10;4.50;;;;;;;38.09;17.29;101617.24;105744;1253;59735;-80
2023/09/28 11:03:11;;;;;;;13.90;7.10;;;;;;;38.01;17.14;101616.17;105797;1255;64109;-76
2023/09/28 11:05:41;;;;;;;20.40;10.10;;;;;;;37.84;17.42;101617.21;105894;1256;61639;-77
2023/09/28 11:08:08;;;;;;;11.30;7.40;;;;;;;37.65;17.30;101613.04;105802;1258;59562;-75
2023/09/28 11:10:36;;;;;;;10.80;3.80;;;;;;;37.39;17.52;101609.58;106020;1253;64938;-76
2023/09/28 11:13:04;;;;;;;7.50;4.60;;;;;;;37.04;17.68;101604.94;105869;1256;59625;-79
2023/09/28 11:15:31;;;;;;;9.10;4.50;;;;;;;36.73;18.43;101600.33;105915;1257;64049;-77
2023/09/28 11:17:58;;;;;;;7.60;3.10;;;;;;;36.51;18.54;101596.48;105869;1255;59727;-77
2023/09/28 11:20:26;;;;;;;6.40;3.10;;;;;;;36.28;19.01;101592.45;105930;1254;59611;-78
2023/09/28 11:22:56;;;;;;;3.20;2.80;;;;;;;36.13;19.53;101586.43;105861;1253;64148;-77